sensor_id;sensor_type;location;lat;lon;timestamp;P1;durP1;ratioP1;P2;durP2;ratioP2
79052;SDS011;68451;49.510;6.026;2023-07-09T00:01:40;8.02;;;6.60;;
79052;SDS011;68451;49.510;6.026;2023-07-09T00:04:08;7.85;;;5.78;;
79052;SDS011;68451;49.510;6.026;2023-07-09T00:06:35;8.65;;;5.68;;
79052;SDS011;68451;49.510;6.026;2023-07-09T00:09:00;7.90;;;6.38;;
79052;SDS011;68451;49.510;6.026;2023-07-09T00:11:28;11.45;;;6.95;;
79052;SDS011;68451;49.510;6.026;2023-07-09T00:13:53;8.75;;;6.90;;
79052;SDS011;68451;49.510;6.026;2023-07-09T00:16:19;10.45;;;7.15;;
79052;SDS011;68451;49.510;6.026;2023-07-09T00:18:48;7.75;;;6.55;;
79052;SDS011;68451;49.510;6.026;2023-07-09T00:21:14;8.88;;;6.75;;
79052;SDS011;68451;49.510;6.026;2023-07-09T00:23:41;10.10;;;6.95;;
79052;SDS011;68451;49.510;6.026;2023-07-09T00:26:09;11.88;;;7.60;;
79052;SDS011;68451;49.510;6.026;2023-07-09T00:28:36;10.00;;;6.97;;
79052;SDS011;68451;49.510;6.026;2023-07-09T00:31:01;7.60;;;6.63;;
79052;SDS011;68451;49.510;6.026;2023-07-09T00:33:27;7.57;;;5.63;;
79052;SDS011;68451;49.510;6.026;2023-07-09T00:35:56;9.60;;;6.93;;
79052;SDS011;68451;49.510;6.026;2023-07-09T00:38:22;8.73;;;6.60;;
79052;SDS011;68451;49.510;6.026;2023-07-09T00:43:33;10.65;;;6.47;;
79052;SDS011;68451;49.510;6.026;2023-07-09T00:48:59;7.13;;;6.32;;
79052;SDS011;68451;49.510;6.026;2023-07-09T00:51:30;8.57;;;5.95;;
79052;SDS011;68451;49.510;6.026;2023-07-09T00:53:58;7.53;;;6.07;;
79052;SDS011;68451;49.510;6.026;2023-07-09T00:56:28;10.25;;;6.93;;
79052;SDS011;68451;49.510;6.026;2023-07-09T00:58:56;10.68;;;7.05;;
79052;SDS011;68451;49.510;6.026;2023-07-09T01:01:26;10.43;;;7.32;;
79052;SDS011;68451;49.510;6.026;2023-07-09T01:03:53;8.60;;;7.22;;
79052;SDS011;68451;49.510;6.026;2023-07-09T01:06:27;8.95;;;6.90;;
79052;SDS011;68451;49.510;6.026;2023-07-09T01:09:06;8.15;;;6.63;;
79052;SDS011;68451;49.510;6.026;2023-07-09T01:11:32;12.43;;;7.13;;
79052;SDS011;68451;49.510;6.026;2023-07-09T01:14:00;9.20;;;6.18;;
79052;SDS011;68451;49.510;6.026;2023-07-09T01:16:28;8.57;;;6.35;;
79052;SDS011;68451;49.510;6.026;2023-07-09T01:18:59;8.30;;;7.40;;
79052;SDS011;68451;49.510;6.026;2023-07-09T01:21:25;9.45;;;6.63;;
79052;SDS011;68451;49.510;6.026;2023-07-09T01:23:52;10.07;;;6.90;;
79052;SDS011;68451;49.510;6.026;2023-07-09T01:26:22;9.00;;;7.10;;
79052;SDS011;68451;49.510;6.026;2023-07-09T01:28:50;7.25;;;6.35;;
79052;SDS011;68451;49.510;6.026;2023-07-09T01:31:16;7.63;;;6.10;;
79052;SDS011;68451;49.510;6.026;2023-07-09T01:33:42;7.97;;;6.20;;
79052;SDS011;68451;49.510;6.026;2023-07-09T01:36:10;8.10;;;6.25;;
79052;SDS011;68451;49.510;6.026;2023-07-09T01:38:38;8.30;;;6.28;;
79052;SDS011;68451;49.510;6.026;2023-07-09T01:41:05;9.95;;;6.85;;
79052;SDS011;68451;49.510;6.026;2023-07-09T01:43:31;11.13;;;7.05;;
79052;SDS011;68451;49.510;6.026;2023-07-09T01:45:57;9.82;;;8.02;;
79052;SDS011;68451;49.510;6.026;2023-07-09T01:48:24;10.73;;;7.25;;
79052;SDS011;68451;49.510;6.026;2023-07-09T01:50:51;9.95;;;7.82;;
79052;SDS011;68451;49.510;6.026;2023-07-09T01:53:19;11.35;;;7.50;;
79052;SDS011;68451;49.510;6.026;2023-07-09T01:55:48;8.90;;;6.80;;
79052;SDS011;68451;49.510;6.026;2023-07-09T01:58:15;10.27;;;7.22;;
79052;SDS011;68451;49.510;6.026;2023-07-09T02:00:41;10.55;;;6.97;;
79052;SDS011;68451;49.510;6.026;2023-07-09T02:03:07;11.75;;;6.57;;
79052;SDS011;68451;49.510;6.026;2023-07-09T02:05:34;10.95;;;6.78;;
79052;SDS011;68451;49.510;6.026;2023-07-09T02:08:01;11.30;;;6.50;;
79052;SDS011;68451;49.510;6.026;2023-07-09T02:10:27;10.95;;;6.00;;
79052;SDS011;68451;49.510;6.026;2023-07-09T02:12:52;7.55;;;6.20;;
79052;SDS011;68451;49.510;6.026;2023-07-09T02:15:18;7.82;;;6.35;;
79052;SDS011;68451;49.510;6.026;2023-07-09T02:17:43;6.90;;;5.53;;
79052;SDS011;68451;49.510;6.026;2023-07-09T02:20:09;8.48;;;6.30;;
79052;SDS011;68451;49.510;6.026;2023-07-09T02:22:36;7.88;;;6.15;;
79052;SDS011;68451;49.510;6.026;2023-07-09T02:25:03;9.70;;;6.75;;
79052;SDS011;68451;49.510;6.026;2023-07-09T02:27:31;8.60;;;6.35;;
79052;SDS011;68451;49.510;6.026;2023-07-09T02:29:58;10.00;;;7.50;;
79052;SDS011;68451;49.510;6.026;2023-07-09T02:32:25;10.73;;;7.85;;
79052;SDS011;68451;49.510;6.026;2023-07-09T02:34:52;10.43;;;7.80;;
79052;SDS011;68451;49.510;6.026;2023-07-09T02:37:20;11.57;;;7.90;;
79052;SDS011;68451;49.510;6.026;2023-07-09T02:39:47;9.30;;;7.43;;
79052;SDS011;68451;49.510;6.026;2023-07-09T02:42:13;9.55;;;7.03;;
79052;SDS011;68451;49.510;6.026;2023-07-09T02:44:40;9.02;;;7.05;;
79052;SDS011;68451;49.510;6.026;2023-07-09T02:47:07;8.73;;;7.43;;
79052;SDS011;68451;49.510;6.026;2023-07-09T02:49:33;8.68;;;6.97;;
79052;SDS011;68451;49.510;6.026;2023-07-09T02:51:59;8.65;;;6.75;;
79052;SDS011;68451;49.510;6.026;2023-07-09T02:54:24;7.90;;;7.10;;
79052;SDS011;68451;49.510;6.026;2023-07-09T02:56:50;10.70;;;6.80;;
79052;SDS011;68451;49.510;6.026;2023-07-09T02:59:15;7.95;;;6.22;;
79052;SDS011;68451;49.510;6.026;2023-07-09T03:01:41;11.15;;;6.88;;
79052;SDS011;68451;49.510;6.026;2023-07-09T03:04:06;13.15;;;6.20;;
79052;SDS011;68451;49.510;6.026;2023-07-09T03:06:33;11.88;;;6.55;;
79052;SDS011;68451;49.510;6.026;2023-07-09T03:09:02;8.80;;;6.60;;
79052;SDS011;68451;49.510;6.026;2023-07-09T03:11:29;8.40;;;6.55;;
79052;SDS011;68451;49.510;6.026;2023-07-09T03:13:56;8.52;;;6.60;;
79052;SDS011;68451;49.510;6.026;2023-07-09T03:16:23;9.93;;;7.38;;
79052;SDS011;68451;49.510;6.026;2023-07-09T03:18:49;8.60;;;6.65;;
79052;SDS011;68451;49.510;6.026;2023-07-09T03:21:14;9.85;;;6.53;;
79052;SDS011;68451;49.510;6.026;2023-07-09T03:23:40;7.57;;;6.75;;
79052;SDS011;68451;49.510;6.026;2023-07-09T03:26:06;8.07;;;5.93;;
79052;SDS011;68451;49.510;6.026;2023-07-09T03:28:31;7.07;;;6.38;;
79052;SDS011;68451;49.510;6.026;2023-07-09T03:30:57;8.50;;;6.78;;
79052;SDS011;68451;49.510;6.026;2023-07-09T03:33:23;13.07;;;6.75;;
79052;SDS011;68451;49.510;6.026;2023-07-09T03:35:49;7.38;;;6.25;;
79052;SDS011;68451;49.510;6.026;2023-07-09T03:38:15;11.85;;;6.28;;
79052;SDS011;68451;49.510;6.026;2023-07-09T03:40:41;8.48;;;6.88;;
79052;SDS011;68451;49.510;6.026;2023-07-09T03:43:07;7.68;;;5.57;;
79052;SDS011;68451;49.510;6.026;2023-07-09T03:45:35;6.95;;;5.30;;
79052;SDS011;68451;49.510;6.026;2023-07-09T03:48:03;8.85;;;5.88;;
79052;SDS011;68451;49.510;6.026;2023-07-09T03:50:30;8.27;;;5.93;;
79052;SDS011;68451;49.510;6.026;2023-07-09T03:52:55;7.78;;;5.20;;
79052;SDS011;68451;49.510;6.026;2023-07-09T03:55:21;10.35;;;6.72;;
79052;SDS011;68451;49.510;6.026;2023-07-09T03:57:46;8.50;;;6.05;;
79052;SDS011;68451;49.510;6.026;2023-07-09T04:00:12;8.05;;;5.95;;
79052;SDS011;68451;49.510;6.026;2023-07-09T04:02:39;8.90;;;7.07;;
79052;SDS011;68451;49.510;6.026;2023-07-09T04:05:06;9.15;;;5.78;;
79052;SDS011;68451;49.510;6.026;2023-07-09T04:07:33;10.75;;;6.00;;
79052;SDS011;68451;49.510;6.026;2023-07-09T04:09:59;6.70;;;5.85;;
79052;SDS011;68451;49.510;6.026;2023-07-09T04:12:25;11.05;;;6.45;;
79052;SDS011;68451;49.510;6.026;2023-07-09T04:14:50;7.93;;;6.10;;
79052;SDS011;68451;49.510;6.026;2023-07-09T04:17:16;8.52;;;5.80;;
79052;SDS011;68451;49.510;6.026;2023-07-09T04:19:42;10.95;;;5.88;;
79052;SDS011;68451;49.510;6.026;2023-07-09T04:22:08;9.02;;;5.53;;
79052;SDS011;68451;49.510;6.026;2023-07-09T04:24:35;7.95;;;4.95;;
79052;SDS011;68451;49.510;6.026;2023-07-09T04:27:01;10.93;;;6.15;;
79052;SDS011;68451;49.510;6.026;2023-07-09T04:29:28;10.63;;;6.65;;
79052;SDS011;68451;49.510;6.026;2023-07-09T04:32:00;7.28;;;5.60;;
79052;SDS011;68451;49.510;6.026;2023-07-09T04:34:27;9.02;;;5.57;;
79052;SDS011;68451;49.510;6.026;2023-07-09T04:36:52;7.53;;;5.80;;
79052;SDS011;68451;49.510;6.026;2023-07-09T04:39:17;5.80;;;5.20;;
79052;SDS011;68451;49.510;6.026;2023-07-09T04:41:43;9.23;;;6.72;;
79052;SDS011;68451;49.510;6.026;2023-07-09T04:44:08;6.82;;;4.88;;
79052;SDS011;68451;49.510;6.026;2023-07-09T04:46:34;7.57;;;5.30;;
79052;SDS011;68451;49.510;6.026;2023-07-09T04:48:59;9.60;;;5.65;;
79052;SDS011;68451;49.510;6.026;2023-07-09T04:51:25;7.10;;;5.15;;
79052;SDS011;68451;49.510;6.026;2023-07-09T04:53:51;7.53;;;5.55;;
79052;SDS011;68451;49.510;6.026;2023-07-09T04:56:17;7.13;;;5.65;;
79052;SDS011;68451;49.510;6.026;2023-07-09T04:58:43;9.68;;;5.22;;
79052;SDS011;68451;49.510;6.026;2023-07-09T05:01:08;8.55;;;5.28;;
79052;SDS011;68451;49.510;6.026;2023-07-09T05:03:34;11.10;;;5.95;;
79052;SDS011;68451;49.510;6.026;2023-07-09T05:05:59;9.18;;;5.97;;
79052;SDS011;68451;49.510;6.026;2023-07-09T05:08:25;7.57;;;6.13;;
79052;SDS011;68451;49.510;6.026;2023-07-09T05:10:51;9.50;;;6.05;;
79052;SDS011;68451;49.510;6.026;2023-07-09T05:13:18;8.57;;;5.90;;
79052;SDS011;68451;49.510;6.026;2023-07-09T05:15:44;6.30;;;5.22;;
79052;SDS011;68451;49.510;6.026;2023-07-09T05:18:11;8.35;;;5.90;;
79052;SDS011;68451;49.510;6.026;2023-07-09T05:20:41;8.52;;;5.65;;
79052;SDS011;68451;49.510;6.026;2023-07-09T05:23:08;9.35;;;5.82;;
79052;SDS011;68451;49.510;6.026;2023-07-09T05:25:34;8.00;;;5.90;;
79052;SDS011;68451;49.510;6.026;2023-07-09T05:28:00;7.75;;;5.38;;
79052;SDS011;68451;49.510;6.026;2023-07-09T05:30:26;11.52;;;6.35;;
79052;SDS011;68451;49.510;6.026;2023-07-09T05:32:51;7.85;;;5.68;;
79052;SDS011;68451;49.510;6.026;2023-07-09T05:35:18;9.55;;;6.00;;
79052;SDS011;68451;49.510;6.026;2023-07-09T05:37:44;7.82;;;6.05;;
79052;SDS011;68451;49.510;6.026;2023-07-09T05:40:09;6.93;;;5.47;;
79052;SDS011;68451;49.510;6.026;2023-07-09T05:42:35;6.72;;;6.07;;
79052;SDS011;68451;49.510;6.026;2023-07-09T05:45:00;9.23;;;5.93;;
79052;SDS011;68451;49.510;6.026;2023-07-09T05:47:26;7.30;;;5.97;;
79052;SDS011;68451;49.510;6.026;2023-07-09T05:49:52;9.25;;;5.60;;
79052;SDS011;68451;49.510;6.026;2023-07-09T05:52:18;8.40;;;5.72;;
79052;SDS011;68451;49.510;6.026;2023-07-09T05:54:45;8.70;;;5.38;;
79052;SDS011;68451;49.510;6.026;2023-07-09T05:57:11;6.72;;;5.05;;
79052;SDS011;68451;49.510;6.026;2023-07-09T05:59:36;6.85;;;6.15;;
79052;SDS011;68451;49.510;6.026;2023-07-09T06:02:02;10.77;;;6.22;;
79052;SDS011;68451;49.510;6.026;2023-07-09T06:04:28;8.20;;;6.20;;
79052;SDS011;68451;49.510;6.026;2023-07-09T06:06:56;7.60;;;5.47;;
79052;SDS011;68451;49.510;6.026;2023-07-09T06:09:22;6.97;;;5.85;;
79052;SDS011;68451;49.510;6.026;2023-07-09T06:11:48;10.23;;;6.38;;
79052;SDS011;68451;49.510;6.026;2023-07-09T06:14:13;7.55;;;5.70;;
79052;SDS011;68451;49.510;6.026;2023-07-09T06:16:39;7.78;;;5.47;;
79052;SDS011;68451;49.510;6.026;2023-07-09T06:19:04;6.63;;;5.93;;
79052;SDS011;68451;49.510;6.026;2023-07-09T06:21:29;7.93;;;6.35;;
79052;SDS011;68451;49.510;6.026;2023-07-09T06:23:55;6.80;;;5.10;;
79052;SDS011;68451;49.510;6.026;2023-07-09T06:26:20;9.30;;;5.75;;
79052;SDS011;68451;49.510;6.026;2023-07-09T06:28:46;7.07;;;4.68;;
79052;SDS011;68451;49.510;6.026;2023-07-09T06:31:12;5.80;;;5.13;;
79052;SDS011;68451;49.510;6.026;2023-07-09T06:33:37;9.02;;;5.70;;
79052;SDS011;68451;49.510;6.026;2023-07-09T06:36:03;7.05;;;5.68;;
79052;SDS011;68451;49.510;6.026;2023-07-09T06:38:29;6.45;;;4.65;;
79052;SDS011;68451;49.510;6.026;2023-07-09T06:40:56;7.15;;;4.75;;
79052;SDS011;68451;49.510;6.026;2023-07-09T06:43:22;7.18;;;4.78;;
79052;SDS011;68451;49.510;6.026;2023-07-09T06:45:48;5.88;;;4.88;;
79052;SDS011;68451;49.510;6.026;2023-07-09T06:48:18;7.78;;;4.72;;
79052;SDS011;68451;49.510;6.026;2023-07-09T06:50:45;7.50;;;4.85;;
79052;SDS011;68451;49.510;6.026;2023-07-09T06:53:10;4.90;;;4.28;;
79052;SDS011;68451;49.510;6.026;2023-07-09T06:55:36;7.95;;;5.07;;
79052;SDS011;68451;49.510;6.026;2023-07-09T06:58:01;5.78;;;4.68;;
79052;SDS011;68451;49.510;6.026;2023-07-09T07:00:27;6.65;;;4.63;;
79052;SDS011;68451;49.510;6.026;2023-07-09T07:02:52;7.32;;;4.75;;
79052;SDS011;68451;49.510;6.026;2023-07-09T07:05:18;5.57;;;4.70;;
79052;SDS011;68451;49.510;6.026;2023-07-09T07:07:43;7.85;;;4.80;;
79052;SDS011;68451;49.510;6.026;2023-07-09T07:10:09;7.20;;;5.22;;
79052;SDS011;68451;49.510;6.026;2023-07-09T07:12:45;7.18;;;5.25;;
79052;SDS011;68451;49.510;6.026;2023-07-09T07:15:13;5.68;;;4.63;;
79052;SDS011;68451;49.510;6.026;2023-07-09T07:17:40;9.20;;;5.47;;
79052;SDS011;68451;49.510;6.026;2023-07-09T07:20:06;6.38;;;4.90;;
79052;SDS011;68451;49.510;6.026;2023-07-09T07:22:33;8.27;;;4.65;;
79052;SDS011;68451;49.510;6.026;2023-07-09T07:24:58;7.68;;;5.25;;
79052;SDS011;68451;49.510;6.026;2023-07-09T07:27:24;5.85;;;4.35;;
79052;SDS011;68451;49.510;6.026;2023-07-09T07:29:49;7.13;;;4.93;;
79052;SDS011;68451;49.510;6.026;2023-07-09T07:32:14;6.20;;;4.75;;
79052;SDS011;68451;49.510;6.026;2023-07-09T07:34:40;7.10;;;4.75;;
79052;SDS011;68451;49.510;6.026;2023-07-09T07:37:05;7.45;;;5.03;;
79052;SDS011;68451;49.510;6.026;2023-07-09T07:39:31;10.23;;;5.20;;
79052;SDS011;68451;49.510;6.026;2023-07-09T07:41:57;10.00;;;5.20;;
79052;SDS011;68451;49.510;6.026;2023-07-09T07:44:22;6.43;;;4.88;;
79052;SDS011;68451;49.510;6.026;2023-07-09T07:46:48;7.35;;;5.20;;
79052;SDS011;68451;49.510;6.026;2023-07-09T07:49:14;6.40;;;4.32;;
79052;SDS011;68451;49.510;6.026;2023-07-09T07:51:39;4.72;;;4.25;;
79052;SDS011;68451;49.510;6.026;2023-07-09T07:54:06;7.55;;;4.53;;
79052;SDS011;68451;49.510;6.026;2023-07-09T07:56:36;5.85;;;4.68;;
79052;SDS011;68451;49.510;6.026;2023-07-09T07:59:02;5.40;;;4.57;;
79052;SDS011;68451;49.510;6.026;2023-07-09T08:01:28;7.50;;;5.13;;
79052;SDS011;68451;49.510;6.026;2023-07-09T08:03:54;6.50;;;4.65;;
79052;SDS011;68451;49.510;6.026;2023-07-09T08:06:20;5.30;;;4.30;;
79052;SDS011;68451;49.510;6.026;2023-07-09T08:08:46;7.00;;;4.50;;
79052;SDS011;68451;49.510;6.026;2023-07-09T08:11:12;7.40;;;4.97;;
79052;SDS011;68451;49.510;6.026;2023-07-09T08:13:38;6.50;;;4.53;;
79052;SDS011;68451;49.510;6.026;2023-07-09T08:16:04;6.57;;;5.03;;
79052;SDS011;68451;49.510;6.026;2023-07-09T08:18:30;6.45;;;4.35;;
79052;SDS011;68451;49.510;6.026;2023-07-09T08:20:57;6.00;;;4.53;;
79052;SDS011;68451;49.510;6.026;2023-07-09T08:23:24;5.65;;;4.63;;
79052;SDS011;68451;49.510;6.026;2023-07-09T08:25:56;6.55;;;4.70;;
79052;SDS011;68451;49.510;6.026;2023-07-09T08:28:23;8.65;;;4.78;;
79052;SDS011;68451;49.510;6.026;2023-07-09T08:30:51;5.65;;;4.63;;
79052;SDS011;68451;49.510;6.026;2023-07-09T08:33:17;4.78;;;4.35;;
79052;SDS011;68451;49.510;6.026;2023-07-09T08:35:42;5.85;;;4.35;;
79052;SDS011;68451;49.510;6.026;2023-07-09T08:38:08;5.68;;;4.70;;
79052;SDS011;68451;49.510;6.026;2023-07-09T08:40:37;6.63;;;5.15;;
79052;SDS011;68451;49.510;6.026;2023-07-09T08:43:14;5.88;;;4.32;;
79052;SDS011;68451;49.510;6.026;2023-07-09T08:45:50;6.88;;;4.57;;
79052;SDS011;68451;49.510;6.026;2023-07-09T08:48:29;6.10;;;4.95;;
79052;SDS011;68451;49.510;6.026;2023-07-09T08:50:59;5.20;;;4.50;;
79052;SDS011;68451;49.510;6.026;2023-07-09T08:53:35;5.82;;;5.20;;
79052;SDS011;68451;49.510;6.026;2023-07-09T08:56:04;6.47;;;4.47;;
79052;SDS011;68451;49.510;6.026;2023-07-09T08:58:34;6.32;;;4.57;;
79052;SDS011;68451;49.510;6.026;2023-07-09T09:01:02;5.95;;;4.65;;
79052;SDS011;68451;49.510;6.026;2023-07-09T09:03:39;4.63;;;4.18;;
79052;SDS011;68451;49.510;6.026;2023-07-09T09:06:15;7.28;;;4.60;;
79052;SDS011;68451;49.510;6.026;2023-07-09T09:11:46;6.22;;;4.22;;
79052;SDS011;68451;49.510;6.026;2023-07-09T09:14:27;5.30;;;3.85;;
79052;SDS011;68451;49.510;6.026;2023-07-09T09:16:55;7.70;;;4.13;;
79052;SDS011;68451;49.510;6.026;2023-07-09T09:19:23;8.70;;;4.18;;
79052;SDS011;68451;49.510;6.026;2023-07-09T09:21:56;6.00;;;4.22;;
79052;SDS011;68451;49.510;6.026;2023-07-09T09:24:27;6.47;;;3.85;;
79052;SDS011;68451;49.510;6.026;2023-07-09T09:26:57;5.07;;;4.05;;
79052;SDS011;68451;49.510;6.026;2023-07-09T09:29:25;6.38;;;4.10;;
79052;SDS011;68451;49.510;6.026;2023-07-09T09:31:52;6.30;;;4.50;;
79052;SDS011;68451;49.510;6.026;2023-07-09T09:34:24;5.68;;;4.03;;
79052;SDS011;68451;49.510;6.026;2023-07-09T09:36:52;4.78;;;3.78;;
79052;SDS011;68451;49.510;6.026;2023-07-09T09:39:19;4.85;;;3.85;;
79052;SDS011;68451;49.510;6.026;2023-07-09T09:41:45;4.90;;;3.80;;
79052;SDS011;68451;49.510;6.026;2023-07-09T09:44:17;6.60;;;3.90;;
79052;SDS011;68451;49.510;6.026;2023-07-09T09:46:44;4.80;;;4.32;;
79052;SDS011;68451;49.510;6.026;2023-07-09T09:49:09;5.13;;;4.32;;
79052;SDS011;68451;49.510;6.026;2023-07-09T09:51:35;6.88;;;4.22;;
79052;SDS011;68451;49.510;6.026;2023-07-09T09:54:07;4.15;;;3.60;;
79052;SDS011;68451;49.510;6.026;2023-07-09T09:56:41;5.45;;;4.25;;
79052;SDS011;68451;49.510;6.026;2023-07-09T09:59:18;6.93;;;3.83;;
79052;SDS011;68451;49.510;6.026;2023-07-09T10:01:59;6.93;;;3.95;;
79052;SDS011;68451;49.510;6.026;2023-07-09T10:04:27;6.13;;;4.78;;
79052;SDS011;68451;49.510;6.026;2023-07-09T10:06:56;6.18;;;3.85;;
79052;SDS011;68451;49.510;6.026;2023-07-09T10:18:02;5.90;;;4.43;;
79052;SDS011;68451;49.510;6.026;2023-07-09T10:26:27;6.13;;;4.30;;
79052;SDS011;68451;49.510;6.026;2023-07-09T10:34:47;6.95;;;4.72;;
79052;SDS011;68451;49.510;6.026;2023-07-09T10:40:17;7.82;;;4.18;;
79052;SDS011;68451;49.510;6.026;2023-07-09T10:42:54;5.55;;;4.35;;
79052;SDS011;68451;49.510;6.026;2023-07-09T10:45:30;5.07;;;3.85;;
79052;SDS011;68451;49.510;6.026;2023-07-09T10:48:07;5.22;;;4.18;;
79052;SDS011;68451;49.510;6.026;2023-07-09T10:50:37;5.20;;;3.85;;
79052;SDS011;68451;49.510;6.026;2023-07-09T10:53:14;5.55;;;4.22;;
79052;SDS011;68451;49.510;6.026;2023-07-09T10:55:53;8.95;;;4.70;;
79052;SDS011;68451;49.510;6.026;2023-07-09T11:01:21;7.45;;;4.70;;
79052;SDS011;68451;49.510;6.026;2023-07-09T11:03:55;7.88;;;4.72;;
79052;SDS011;68451;49.510;6.026;2023-07-09T11:06:34;7.60;;;4.55;;
79052;SDS011;68451;49.510;6.026;2023-07-09T11:11:53;5.63;;;4.30;;
79052;SDS011;68451;49.510;6.026;2023-07-09T11:14:23;6.20;;;4.05;;
79052;SDS011;68451;49.510;6.026;2023-07-09T11:16:56;6.18;;;4.68;;
79052;SDS011;68451;49.510;6.026;2023-07-09T11:19:24;6.13;;;4.10;;
79052;SDS011;68451;49.510;6.026;2023-07-09T11:24:29;6.80;;;4.40;;
79052;SDS011;68451;49.510;6.026;2023-07-09T11:26:57;6.15;;;4.18;;
79052;SDS011;68451;49.510;6.026;2023-07-09T11:29:25;4.93;;;3.35;;
79052;SDS011;68451;49.510;6.026;2023-07-09T11:31:50;7.05;;;4.53;;
79052;SDS011;68451;49.510;6.026;2023-07-09T11:34:17;6.43;;;4.05;;
79052;SDS011;68451;49.510;6.026;2023-07-09T11:36:46;8.00;;;4.00;;
79052;SDS011;68451;49.510;6.026;2023-07-09T11:41:57;7.10;;;4.38;;
79052;SDS011;68451;49.510;6.026;2023-07-09T11:44:24;6.13;;;4.75;;
79052;SDS011;68451;49.510;6.026;2023-07-09T11:47:03;5.63;;;4.18;;
79052;SDS011;68451;49.510;6.026;2023-07-09T11:52:33;7.28;;;4.55;;
79052;SDS011;68451;49.510;6.026;2023-07-09T11:58:01;5.80;;;3.75;;
79052;SDS011;68451;49.510;6.026;2023-07-09T12:00:29;5.90;;;4.53;;
79052;SDS011;68451;49.510;6.026;2023-07-09T12:03:02;6.15;;;4.43;;
79052;SDS011;68451;49.510;6.026;2023-07-09T12:05:29;6.63;;;4.03;;
79052;SDS011;68451;49.510;6.026;2023-07-09T12:07:58;7.13;;;4.45;;
79052;SDS011;68451;49.510;6.026;2023-07-09T12:10:25;6.35;;;4.40;;
79052;SDS011;68451;49.510;6.026;2023-07-09T12:12:54;7.63;;;4.95;;
79052;SDS011;68451;49.510;6.026;2023-07-09T12:15:22;5.22;;;4.68;;
79052;SDS011;68451;49.510;6.026;2023-07-09T12:17:55;7.05;;;4.20;;
79052;SDS011;68451;49.510;6.026;2023-07-09T12:20:22;8.15;;;4.82;;
79052;SDS011;68451;49.510;6.026;2023-07-09T12:22:49;6.07;;;4.65;;
79052;SDS011;68451;49.510;6.026;2023-07-09T12:25:19;7.47;;;4.47;;
79052;SDS011;68451;49.510;6.026;2023-07-09T12:27:47;8.13;;;5.82;;
79052;SDS011;68451;49.510;6.026;2023-07-09T12:30:13;6.05;;;4.22;;
79052;SDS011;68451;49.510;6.026;2023-07-09T12:32:45;5.18;;;4.10;;
79052;SDS011;68451;49.510;6.026;2023-07-09T12:35:13;5.38;;;4.25;;
79052;SDS011;68451;49.510;6.026;2023-07-09T12:37:40;9.02;;;4.28;;
79052;SDS011;68451;49.510;6.026;2023-07-09T12:40:13;8.57;;;4.72;;
79052;SDS011;68451;49.510;6.026;2023-07-09T12:42:41;4.85;;;3.65;;
79052;SDS011;68451;49.510;6.026;2023-07-09T12:45:17;5.43;;;3.70;;
79052;SDS011;68451;49.510;6.026;2023-07-09T12:47:45;6.03;;;4.20;;
79052;SDS011;68451;49.510;6.026;2023-07-09T12:50:19;4.18;;;3.42;;
79052;SDS011;68451;49.510;6.026;2023-07-09T12:52:51;8.00;;;4.40;;
79052;SDS011;68451;49.510;6.026;2023-07-09T12:55:24;5.00;;;4.13;;
79052;SDS011;68451;49.510;6.026;2023-07-09T12:57:57;6.60;;;4.00;;
79052;SDS011;68451;49.510;6.026;2023-07-09T13:00:29;16.52;;;5.63;;
79052;SDS011;68451;49.510;6.026;2023-07-09T13:02:57;18.85;;;7.13;;
79052;SDS011;68451;49.510;6.026;2023-07-09T13:05:24;14.80;;;6.45;;
79052;SDS011;68451;49.510;6.026;2023-07-09T13:07:52;17.60;;;7.32;;
79052;SDS011;68451;49.510;6.026;2023-07-09T13:10:22;7.95;;;5.53;;
79052;SDS011;68451;49.510;6.026;2023-07-09T13:12:52;12.30;;;5.68;;
79052;SDS011;68451;49.510;6.026;2023-07-09T13:15:21;11.60;;;5.30;;
79052;SDS011;68451;49.510;6.026;2023-07-09T13:17:56;8.25;;;5.05;;
79052;SDS011;68451;49.510;6.026;2023-07-09T13:20:23;7.32;;;4.43;;
79052;SDS011;68451;49.510;6.026;2023-07-09T13:22:48;11.00;;;5.60;;
79052;SDS011;68451;49.510;6.026;2023-07-09T13:25:13;7.78;;;5.35;;
79052;SDS011;68451;49.510;6.026;2023-07-09T13:27:39;7.07;;;5.18;;
79052;SDS011;68451;49.510;6.026;2023-07-09T13:30:04;5.82;;;4.53;;
79052;SDS011;68451;49.510;6.026;2023-07-09T13:32:30;7.40;;;5.55;;
79052;SDS011;68451;49.510;6.026;2023-07-09T13:34:56;10.50;;;6.30;;
79052;SDS011;68451;49.510;6.026;2023-07-09T13:37:22;6.75;;;5.18;;
79052;SDS011;68451;49.510;6.026;2023-07-09T13:39:48;8.18;;;5.20;;
79052;SDS011;68451;49.510;6.026;2023-07-09T13:42:15;7.43;;;4.90;;
79052;SDS011;68451;49.510;6.026;2023-07-09T13:44:43;7.97;;;5.70;;
79052;SDS011;68451;49.510;6.026;2023-07-09T13:47:13;8.88;;;6.00;;
79052;SDS011;68451;49.510;6.026;2023-07-09T13:49:41;8.82;;;5.88;;
79052;SDS011;68451;49.510;6.026;2023-07-09T13:52:13;9.98;;;5.53;;
79052;SDS011;68451;49.510;6.026;2023-07-09T13:54:42;8.00;;;5.13;;
79052;SDS011;68451;49.510;6.026;2023-07-09T13:57:12;9.23;;;6.10;;
79052;SDS011;68451;49.510;6.026;2023-07-09T13:59:40;7.97;;;5.88;;
79052;SDS011;68451;49.510;6.026;2023-07-09T14:02:25;6.70;;;5.47;;
79052;SDS011;68451;49.510;6.026;2023-07-09T14:04:57;6.82;;;4.97;;
79052;SDS011;68451;49.510;6.026;2023-07-09T14:07:28;7.07;;;4.97;;
79052;SDS011;68451;49.510;6.026;2023-07-09T14:09:57;8.60;;;4.90;;
79052;SDS011;68451;49.510;6.026;2023-07-09T14:12:23;7.40;;;5.30;;
79052;SDS011;68451;49.510;6.026;2023-07-09T14:14:49;8.63;;;6.07;;
79052;SDS011;68451;49.510;6.026;2023-07-09T14:17:16;5.95;;;5.32;;
79052;SDS011;68451;49.510;6.026;2023-07-09T14:19:42;6.72;;;4.93;;
79052;SDS011;68451;49.510;6.026;2023-07-09T14:24:56;7.47;;;4.40;;
79052;SDS011;68451;49.510;6.026;2023-07-09T14:27:22;7.57;;;4.85;;
79052;SDS011;68451;49.510;6.026;2023-07-09T14:29:48;6.50;;;4.47;;
79052;SDS011;68451;49.510;6.026;2023-07-09T14:32:25;6.25;;;5.50;;
79052;SDS011;68451;49.510;6.026;2023-07-09T14:35:09;6.80;;;4.30;;
79052;SDS011;68451;49.510;6.026;2023-07-09T14:37:37;6.63;;;4.40;;
79052;SDS011;68451;49.510;6.026;2023-07-09T14:40:03;6.90;;;5.15;;
79052;SDS011;68451;49.510;6.026;2023-07-09T14:42:30;7.20;;;4.80;;
79052;SDS011;68451;49.510;6.026;2023-07-09T14:44:56;5.18;;;4.15;;
79052;SDS011;68451;49.510;6.026;2023-07-09T14:47:22;7.13;;;4.43;;
79052;SDS011;68451;49.510;6.026;2023-07-09T14:49:48;7.07;;;4.50;;
79052;SDS011;68451;49.510;6.026;2023-07-09T14:52:16;5.82;;;4.45;;
79052;SDS011;68451;49.510;6.026;2023-07-09T14:54:44;6.82;;;5.40;;
79052;SDS011;68451;49.510;6.026;2023-07-09T14:57:20;8.82;;;5.55;;
79052;SDS011;68451;49.510;6.026;2023-07-09T14:59:47;6.90;;;6.18;;
79052;SDS011;68451;49.510;6.026;2023-07-09T15:04:45;8.20;;;5.30;;
79052;SDS011;68451;49.510;6.026;2023-07-09T15:07:11;6.65;;;4.68;;
79052;SDS011;68451;49.510;6.026;2023-07-09T15:09:39;7.25;;;5.15;;
79052;SDS011;68451;49.510;6.026;2023-07-09T15:12:04;6.00;;;4.32;;
79052;SDS011;68451;49.510;6.026;2023-07-09T15:14:37;6.55;;;4.95;;
79052;SDS011;68451;49.510;6.026;2023-07-09T15:17:02;8.38;;;4.65;;
79052;SDS011;68451;49.510;6.026;2023-07-09T15:19:28;6.97;;;4.30;;
79052;SDS011;68451;49.510;6.026;2023-07-09T15:21:54;5.47;;;4.40;;
79052;SDS011;68451;49.510;6.026;2023-07-09T15:24:21;4.57;;;4.18;;
79052;SDS011;68451;49.510;6.026;2023-07-09T15:26:52;6.88;;;4.68;;
79052;SDS011;68451;49.510;6.026;2023-07-09T15:29:19;5.80;;;3.95;;
79052;SDS011;68451;49.510;6.026;2023-07-09T15:31:46;6.22;;;4.50;;
79052;SDS011;68451;49.510;6.026;2023-07-09T15:34:11;7.10;;;5.00;;
79052;SDS011;68451;49.510;6.026;2023-07-09T15:36:43;8.73;;;4.68;;
79052;SDS011;68451;49.510;6.026;2023-07-09T15:39:11;7.50;;;5.20;;
79052;SDS011;68451;49.510;6.026;2023-07-09T15:41:37;7.38;;;4.20;;
79052;SDS011;68451;49.510;6.026;2023-07-09T15:44:03;5.28;;;4.60;;